createdAt,value
2017-05-31T00:02:26.978Z,100763
2017-05-31T00:04:55.934Z,100775
2017-05-31T00:07:24.887Z,100763
2017-05-31T00:09:53.879Z,100778
2017-05-31T00:12:22.819Z,100779
2017-05-31T00:14:52.084Z,100784
2017-05-31T00:17:21.038Z,100786
2017-05-31T00:19:49.986Z,100791
2017-05-31T00:22:18.946Z,100793
2017-05-31T00:24:47.929Z,100788
2017-05-31T00:27:16.903Z,100799
2017-05-31T00:29:45.857Z,100798
2017-05-31T00:32:15.118Z,100801
2017-05-31T00:34:44.108Z,100807
2017-05-31T00:37:13.089Z,100807
2017-05-31T00:39:42.070Z,100812
2017-05-31T00:42:11.035Z,100796
2017-05-31T00:44:40.290Z,100805
2017-05-31T00:47:09.238Z,100805
2017-05-31T00:49:38.191Z,100802
2017-05-31T00:52:07.182Z,100802
2017-05-31T00:54:36.149Z,100803
2017-05-31T00:57:05.459Z,100822
2017-05-31T00:59:34.404Z,100812
2017-05-31T01:02:03.366Z,100817
2017-05-31T01:04:32.335Z,100821
2017-05-31T01:07:01.293Z,100827
2017-05-31T01:09:30.615Z,100825
2017-05-31T01:12:00.308Z,100828
2017-05-31T01:14:29.295Z,100818
2017-05-31T01:16:58.288Z,100825
2017-05-31T01:19:27.546Z,100825
2017-05-31T01:21:56.870Z,100825
2017-05-31T01:24:25.831Z,100826
2017-05-31T01:26:54.785Z,100827
2017-05-31T01:29:23.769Z,100825
2017-05-31T01:31:52.725Z,100824
2017-05-31T01:34:21.976Z,100822
2017-05-31T01:36:50.960Z,100831
2017-05-31T01:39:19.925Z,100824
2017-05-31T01:41:48.891Z,100826
2017-05-31T01:44:17.837Z,100828
2017-05-31T01:46:47.075Z,100823
2017-05-31T01:49:16.007Z,100823
2017-05-31T01:51:44.974Z,100826
2017-05-31T01:54:13.954Z,100823
2017-05-31T01:56:42.959Z,100826
2017-05-31T01:59:12.324Z,100835
2017-05-31T02:01:41.282Z,100826
2017-05-31T02:04:10.227Z,100826
2017-05-31T02:06:39.193Z,100825
2017-05-31T02:09:08.166Z,100831
2017-05-31T02:11:37.598Z,100834
2017-05-31T02:14:06.549Z,100827
2017-05-31T02:16:35.505Z,100824
2017-05-31T02:19:04.498Z,100828
2017-05-31T02:21:33.495Z,100823
2017-05-31T02:24:02.839Z,100828
2017-05-31T02:26:31.808Z,100831
2017-05-31T02:29:00.772Z,100823
2017-05-31T02:31:29.823Z,100816
2017-05-31T02:33:58.759Z,100804
2017-05-31T02:36:28.007Z,100799
2017-05-31T02:38:56.963Z,100798
2017-05-31T02:41:25.926Z,100815
2017-05-31T02:43:54.894Z,100813
2017-05-31T02:46:23.842Z,100816
2017-05-31T02:48:53.170Z,100811
2017-05-31T02:51:22.139Z,100814
2017-05-31T02:53:51.113Z,100819
2017-05-31T02:56:20.077Z,100822
2017-05-31T02:58:49.046Z,100820
2017-05-31T03:01:18.357Z,100817
2017-05-31T03:03:47.301Z,100824
2017-05-31T03:06:16.283Z,100828
2017-05-31T03:08:45.258Z,100832
2017-05-31T03:11:14.231Z,100838
2017-05-31T03:13:43.602Z,100848
2017-05-31T03:16:12.547Z,100848
2017-05-31T03:18:41.497Z,100846
2017-05-31T03:21:10.475Z,100852
2017-05-31T03:23:39.512Z,100845
2017-05-31T03:26:08.795Z,100839
2017-05-31T03:28:37.834Z,100847
2017-05-31T03:31:06.781Z,100847
2017-05-31T03:33:35.774Z,100854
2017-05-31T03:36:04.739Z,100843
2017-05-31T03:38:34.063Z,100854
2017-05-31T03:41:03.026Z,100849
2017-05-31T03:43:31.949Z,100844
2017-05-31T03:46:00.969Z,100845
2017-05-31T03:48:29.938Z,100845
2017-05-31T03:50:59.235Z,100846
2017-05-31T03:53:28.181Z,100846
2017-05-31T03:55:57.129Z,100844
2017-05-31T03:58:26.094Z,100854
2017-05-31T04:00:55.127Z,100850
2017-05-31T04:03:24.482Z,100855
2017-05-31T04:05:53.427Z,100864
2017-05-31T04:08:22.411Z,100858
2017-05-31T04:10:51.425Z,100856
2017-05-31T04:13:20.398Z,100859
2017-05-31T04:15:49.638Z,100871
2017-05-31T04:18:18.631Z,100871
2017-05-31T04:20:47.701Z,100878
2017-05-31T04:23:16.686Z,100873
2017-05-31T04:25:45.650Z,100873
2017-05-31T04:28:15.034Z,100874
2017-05-31T04:30:43.990Z,100886
2017-05-31T04:33:13.124Z,100882
2017-05-31T04:35:42.123Z,100883
2017-05-31T04:38:11.079Z,100882
2017-05-31T04:40:40.388Z,100896
2017-05-31T04:43:09.402Z,100890
2017-05-31T04:45:38.358Z,100889
2017-05-31T04:48:07.340Z,100908
2017-05-31T04:50:36.294Z,100911
2017-05-31T04:53:05.656Z,100924
2017-05-31T04:55:34.657Z,100918
2017-05-31T04:58:03.611Z,100919
2017-05-31T05:00:32.597Z,100927
2017-05-31T05:03:01.556Z,100933
2017-05-31T05:05:30.913Z,100927
2017-05-31T05:07:59.935Z,100931
2017-05-31T05:10:28.888Z,100931
2017-05-31T05:12:57.850Z,100936
2017-05-31T05:15:26.865Z,100929
2017-05-31T05:17:56.213Z,100934
2017-05-31T05:20:25.166Z,100936
2017-05-31T05:22:54.119Z,100937
2017-05-31T05:25:23.102Z,100938
2017-05-31T05:27:52.055Z,100941
2017-05-31T05:30:21.290Z,100939
2017-05-31T05:32:50.313Z,100945
2017-05-31T05:35:19.291Z,100945
2017-05-31T05:37:48.277Z,100938
2017-05-31T05:40:17.214Z,100945
2017-05-31T05:42:46.533Z,100944
2017-05-31T05:45:15.582Z,100957
2017-05-31T05:47:44.529Z,100957
2017-05-31T05:50:13.522Z,100956
2017-05-31T05:52:42.478Z,100969
2017-05-31T05:55:11.800Z,100952
2017-05-31T05:57:40.739Z,100981
2017-05-31T06:00:09.702Z,100976
2017-05-31T06:02:38.697Z,100977
2017-05-31T06:05:07.758Z,100981
2017-05-31T06:07:37.191Z,100979
2017-05-31T06:10:06.134Z,100984
2017-05-31T06:12:35.087Z,100989
2017-05-31T06:15:04.034Z,100993
2017-05-31T06:17:33.096Z,100994
2017-05-31T06:20:02.521Z,100998
2017-05-31T06:22:31.489Z,101004
2017-05-31T06:25:00.449Z,101011
2017-05-31T06:27:29.417Z,101005
2017-05-31T06:29:58.782Z,101007
2017-05-31T06:32:28.278Z,101015
2017-05-31T06:34:57.216Z,101014
2017-05-31T06:37:26.171Z,101019
2017-05-31T06:39:55.126Z,101029
2017-05-31T06:42:24.049Z,101030
2017-05-31T06:44:53.022Z,101042
2017-05-31T06:47:22.029Z,101034
2017-05-31T06:49:51.558Z,101036
2017-05-31T06:52:20.491Z,101048
2017-05-31T06:54:49.572Z,101045
2017-05-31T06:57:18.544Z,101043
2017-05-31T06:59:47.522Z,101043
2017-05-31T07:02:16.093Z,101058
2017-05-31T07:04:45.051Z,101061
2017-05-31T07:07:14.002Z,101061
2017-05-31T07:09:42.973Z,101056
2017-05-31T07:12:11.903Z,101074
2017-05-31T07:14:41.211Z,101080
2017-05-31T07:17:10.188Z,101078
2017-05-31T07:19:39.126Z,101081
2017-05-31T07:22:08.119Z,101077
2017-05-31T07:24:37.187Z,101093
2017-05-31T07:27:06.480Z,101091
2017-05-31T07:29:35.496Z,101084
2017-05-31T07:32:04.451Z,101086
2017-05-31T07:34:33.489Z,101092
2017-05-31T07:37:02.422Z,101108
2017-05-31T07:39:31.919Z,101113
2017-05-31T07:42:00.886Z,101106
2017-05-31T07:44:29.882Z,101119
2017-05-31T07:46:58.862Z,101109
2017-05-31T07:49:27.833Z,101116
2017-05-31T07:51:57.276Z,101107
2017-05-31T07:54:26.244Z,101119
2017-05-31T07:56:55.211Z,101113
2017-05-31T07:59:24.192Z,101120
2017-05-31T08:01:53.146Z,101126
2017-05-31T08:04:22.560Z,101123
2017-05-31T08:06:51.516Z,101111
2017-05-31T08:09:20.484Z,101116
2017-05-31T08:11:49.475Z,101125
2017-05-31T08:14:18.479Z,101129
2017-05-31T08:16:47.821Z,101132
2017-05-31T08:19:16.794Z,101128
2017-05-31T08:21:45.743Z,101138
2017-05-31T08:24:14.763Z,101144
2017-05-31T08:26:43.703Z,101152
2017-05-31T08:29:13.014Z,101152
2017-05-31T08:31:41.978Z,101146
2017-05-31T08:34:10.967Z,101155
2017-05-31T08:36:39.984Z,101166
2017-05-31T08:39:08.960Z,101160
2017-05-31T08:41:38.353Z,101152
2017-05-31T08:44:07.324Z,101144
2017-05-31T08:46:36.284Z,101167
2017-05-31T08:49:05.274Z,101163
2017-05-31T08:51:34.416Z,101153
2017-05-31T08:54:03.827Z,101184
2017-05-31T08:56:32.810Z,101173
2017-05-31T08:59:01.778Z,101174
2017-05-31T09:01:30.752Z,101184
2017-05-31T09:03:59.787Z,101185
2017-05-31T09:06:29.077Z,101184
2017-05-31T09:08:58.054Z,101182
2017-05-31T09:11:27.050Z,101195
2017-05-31T09:13:56.014Z,101188
2017-05-31T09:16:24.962Z,101188
2017-05-31T09:18:54.360Z,101202
2017-05-31T09:21:23.441Z,101202
2017-05-31T09:23:52.394Z,101201
2017-05-31T09:26:21.387Z,101197
2017-05-31T09:28:50.375Z,101208
2017-05-31T09:31:19.727Z,101215
2017-05-31T09:33:48.710Z,101207
2017-05-31T09:36:17.663Z,101212
2017-05-31T09:38:46.630Z,101231
2017-05-31T09:41:15.608Z,101229
2017-05-31T09:43:44.998Z,101230
2017-05-31T09:46:14.027Z,101244
2017-05-31T09:48:42.972Z,101248
2017-05-31T09:51:11.967Z,101238
2017-05-31T09:53:40.931Z,101241
2017-05-31T09:56:09.971Z,101242
2017-05-31T09:58:38.963Z,101245
2017-05-31T10:01:08.340Z,101257
2017-05-31T10:03:36.515Z,101274
2017-05-31T10:06:05.742Z,101275
2017-05-31T10:08:34.732Z,101258
2017-05-31T10:11:03.683Z,101264
2017-05-31T10:13:32.965Z,101267
2017-05-31T10:16:01.922Z,101275
2017-05-31T10:18:30.872Z,101273
2017-05-31T10:20:59.875Z,101274
2017-05-31T10:23:28.796Z,101285
2017-05-31T10:25:58.277Z,101282
2017-05-31T10:28:27.259Z,101279
2017-05-31T10:30:56.270Z,101284
2017-05-31T10:33:25.238Z,101276
2017-05-31T10:35:54.232Z,101287
2017-05-31T10:38:23.642Z,101295
2017-05-31T10:40:52.623Z,101298
2017-05-31T10:43:21.602Z,101278
2017-05-31T10:45:50.694Z,101288
2017-05-31T10:48:19.740Z,101292
2017-05-31T10:50:49.176Z,101293
2017-05-31T10:53:18.142Z,101320
2017-05-31T10:55:47.097Z,101322
2017-05-31T10:58:16.085Z,101311
2017-05-31T11:00:45.076Z,101308
2017-05-31T11:03:14.396Z,101309
2017-05-31T11:05:43.382Z,101308
2017-05-31T11:08:12.350Z,101316
2017-05-31T11:10:41.354Z,101313
2017-05-31T11:13:10.315Z,101314
2017-05-31T11:15:39.708Z,101320
2017-05-31T11:18:08.763Z,101328
2017-05-31T11:20:37.767Z,101308
2017-05-31T11:23:06.757Z,101325
2017-05-31T11:25:35.721Z,101327
2017-05-31T11:28:05.031Z,101327
2017-05-31T11:30:34.007Z,101324
2017-05-31T11:33:02.195Z,101327
2017-05-31T11:35:31.262Z,101345
2017-05-31T11:38:00.355Z,101340
2017-05-31T11:40:29.675Z,101335
2017-05-31T11:42:58.629Z,101345
2017-05-31T11:45:27.625Z,101342
2017-05-31T11:47:56.633Z,101361
2017-05-31T11:50:25.610Z,101343
2017-05-31T11:52:54.929Z,101378
2017-05-31T11:55:23.932Z,101345
2017-05-31T11:57:52.892Z,101349
2017-05-31T12:00:21.857Z,101341
2017-05-31T12:02:50.846Z,101341
2017-05-31T12:05:20.318Z,101351
2017-05-31T12:07:49.292Z,101350
2017-05-31T12:10:18.336Z,101351
2017-05-31T12:12:47.304Z,101365
2017-05-31T12:15:16.298Z,101363
2017-05-31T12:17:44.866Z,101370
2017-05-31T12:20:13.890Z,101379
2017-05-31T12:22:42.854Z,101365
2017-05-31T12:25:11.847Z,101361
2017-05-31T12:27:40.822Z,101379
2017-05-31T12:30:10.161Z,101379
2017-05-31T12:32:39.143Z,101384
2017-05-31T12:35:07.369Z,101377
2017-05-31T12:37:36.355Z,101381
2017-05-31T12:40:05.389Z,101388
2017-05-31T12:42:34.799Z,101386
2017-05-31T12:45:03.770Z,101367
2017-05-31T12:47:32.736Z,101393
2017-05-31T12:50:01.731Z,101381
2017-05-31T12:52:30.711Z,101393
2017-05-31T12:55:00.174Z,101392
2017-05-31T12:57:29.274Z,101395
2017-05-31T12:59:58.227Z,101403
2017-05-31T13:02:26.670Z,101375
2017-05-31T13:04:55.641Z,101389
2017-05-31T13:07:24.696Z,101391
2017-05-31T13:09:53.729Z,101394
2017-05-31T13:12:22.725Z,101374
2017-05-31T13:14:51.690Z,101381
2017-05-31T13:17:20.656Z,101374
2017-05-31T13:19:50.199Z,101371
2017-05-31T13:22:19.169Z,101379
2017-05-31T13:24:48.174Z,101364
2017-05-31T13:27:17.198Z,101389
2017-05-31T13:29:46.163Z,101392
2017-05-31T13:32:15.580Z,101382
2017-05-31T13:34:44.564Z,101388
2017-05-31T13:37:13.542Z,101386
2017-05-31T13:39:42.518Z,101395
2017-05-31T13:42:11.509Z,101399
2017-05-31T13:44:40.914Z,101391
2017-05-31T13:47:09.906Z,101390
2017-05-31T13:49:38.855Z,101395
2017-05-31T13:52:07.835Z,101393
2017-05-31T13:54:36.833Z,101387
2017-05-31T13:57:06.185Z,101389
2017-05-31T13:59:35.150Z,101376
2017-05-31T14:02:04.103Z,101372
2017-05-31T14:04:33.082Z,101387
2017-05-31T14:07:02.055Z,101387
2017-05-31T14:09:31.453Z,101381
2017-05-31T14:12:00.560Z,101388
2017-05-31T14:14:29.530Z,101376
2017-05-31T14:16:58.547Z,101383
2017-05-31T14:19:27.499Z,101370
2017-05-31T14:21:56.831Z,101374
2017-05-31T14:24:25.779Z,101397
2017-05-31T14:26:54.745Z,101380
2017-05-31T14:29:23.730Z,101391
2017-05-31T14:31:52.693Z,101385
2017-05-31T14:34:22.205Z,101382
2017-05-31T14:36:51.203Z,101385
2017-05-31T14:39:20.202Z,101380
2017-05-31T14:41:49.168Z,101390
2017-05-31T14:44:18.190Z,101398
2017-05-31T14:46:47.544Z,101388
2017-05-31T14:49:16.525Z,101394
2017-05-31T14:51:45.613Z,101404
2017-05-31T14:54:14.630Z,101393
2017-05-31T14:56:43.570Z,101396
2017-05-31T14:59:12.933Z,101400
2017-05-31T15:01:41.990Z,101407
2017-05-31T15:04:11.043Z,101394
2017-05-31T15:06:40.035Z,101412
2017-05-31T15:09:09.016Z,101396
2017-05-31T15:11:38.379Z,101390
2017-05-31T15:14:07.466Z,101415
2017-05-31T15:16:36.460Z,101401
2017-05-31T15:19:05.451Z,101404
2017-05-31T15:21:34.505Z,101406
2017-05-31T15:24:03.979Z,101417
2017-05-31T15:26:32.941Z,101413
2017-05-31T15:29:01.986Z,101412
2017-05-31T15:31:30.955Z,101395
2017-05-31T15:33:59.919Z,101410
2017-05-31T15:36:29.238Z,101406
2017-05-31T15:38:58.297Z,101407
2017-05-31T15:41:28.311Z,101405
2017-05-31T15:43:57.294Z,101407
2017-05-31T15:46:26.278Z,101418
2017-05-31T15:48:55.659Z,101405
2017-05-31T15:51:24.660Z,101409
2017-05-31T15:53:53.659Z,101405
2017-05-31T15:56:22.703Z,101397
2017-05-31T15:58:51.659Z,101406
2017-05-31T16:01:20.966Z,101413
2017-05-31T16:03:49.922Z,101404
2017-05-31T16:06:18.912Z,101422
2017-05-31T16:08:47.959Z,101423
2017-05-31T16:11:16.966Z,101413
2017-05-31T16:13:46.392Z,101425
2017-05-31T16:16:15.341Z,101407
2017-05-31T16:18:44.329Z,101419
2017-05-31T16:21:13.330Z,101416
2017-05-31T16:23:43.192Z,101411
2017-05-31T16:26:12.567Z,101415
2017-05-31T16:28:41.535Z,101421
2017-05-31T16:31:10.513Z,101426
2017-05-31T16:33:39.528Z,101419
2017-05-31T16:36:08.491Z,101418
2017-05-31T16:38:37.831Z,101416
2017-05-31T16:41:06.818Z,101411
2017-05-31T16:43:35.801Z,101408
2017-05-31T16:46:04.780Z,101405
2017-05-31T16:48:33.781Z,101409
2017-05-31T16:51:03.192Z,101412
2017-05-31T16:53:32.271Z,101404
2017-05-31T16:56:01.226Z,101396
2017-05-31T16:58:30.246Z,101420
2017-05-31T17:00:59.229Z,101412
2017-05-31T17:03:28.566Z,101403
2017-05-31T17:05:57.616Z,101409
2017-05-31T17:08:26.575Z,101423
2017-05-31T17:10:55.584Z,101417
2017-05-31T17:13:24.531Z,101403
2017-05-31T17:15:53.918Z,101406
2017-05-31T17:18:22.863Z,101417
2017-05-31T17:20:51.830Z,101421
2017-05-31T17:23:20.823Z,101418
2017-05-31T17:25:49.880Z,101428
2017-05-31T17:28:18.878Z,101418
2017-05-31T17:30:47.857Z,101418
2017-05-31T17:33:17.270Z,101417
2017-05-31T17:35:46.244Z,101427
2017-05-31T17:38:15.244Z,101424
2017-05-31T17:40:44.359Z,101425
2017-05-31T17:43:13.351Z,101429
2017-05-31T17:45:42.683Z,101421
2017-05-31T17:48:11.674Z,101428
2017-05-31T17:50:40.684Z,101420
2017-05-31T17:53:09.689Z,101428
2017-05-31T17:55:38.646Z,101426
2017-05-31T17:58:08.058Z,101427
2017-05-31T18:00:37.060Z,101415
2017-05-31T18:03:06.036Z,101423
2017-05-31T18:05:35.344Z,101430
2017-05-31T18:08:04.328Z,101415
2017-05-31T18:10:33.746Z,101408
2017-05-31T18:13:02.782Z,101414
2017-05-31T18:15:31.829Z,101417
2017-05-31T18:18:00.795Z,101409
2017-05-31T18:20:29.799Z,101410
2017-05-31T18:22:59.267Z,101418
2017-05-31T18:25:28.248Z,101430
2017-05-31T18:27:57.249Z,101425
2017-05-31T18:30:26.315Z,101439
2017-05-31T18:32:55.299Z,101441
2017-05-31T18:35:24.656Z,101427
2017-05-31T18:37:53.655Z,101427
2017-05-31T18:40:22.667Z,101431
2017-05-31T18:42:51.688Z,101431
2017-05-31T18:45:20.712Z,101425
2017-05-31T18:47:50.037Z,101422
2017-05-31T18:50:18.996Z,101428
2017-05-31T18:52:48.048Z,101429
2017-05-31T18:55:17.039Z,101424
2017-05-31T18:57:46.067Z,101430
2017-05-31T19:00:15.500Z,101434
2017-05-31T19:02:44.494Z,101427
2017-05-31T19:05:13.483Z,101441
2017-05-31T19:07:42.485Z,101437
2017-05-31T19:10:11.456Z,101441
2017-05-31T19:12:40.896Z,101437
2017-05-31T19:15:09.124Z,101438
2017-05-31T19:17:38.204Z,101443
2017-05-31T19:20:07.207Z,101441
2017-05-31T19:22:36.520Z,101441
2017-05-31T19:25:05.991Z,101444
2017-05-31T19:27:35.009Z,101438
2017-05-31T19:30:04.006Z,101447
2017-05-31T19:32:33.061Z,101441
2017-05-31T19:35:02.071Z,101452
2017-05-31T19:37:31.413Z,101453
2017-05-31T19:40:00.395Z,101449
2017-05-31T19:42:29.455Z,101444
2017-05-31T19:44:58.537Z,101453
2017-05-31T19:47:27.553Z,101454
2017-05-31T19:49:57.025Z,101446
2017-05-31T19:52:26.051Z,101448
2017-05-31T19:54:55.017Z,101454
2017-05-31T19:57:24.015Z,101458
2017-05-31T19:59:53.019Z,101469
2017-05-31T20:02:22.326Z,101467
2017-05-31T20:04:51.338Z,101480
2017-05-31T20:07:20.494Z,101469
2017-05-31T20:09:49.573Z,101468
2017-05-31T20:12:18.683Z,101468
2017-05-31T20:14:48.850Z,101460
2017-05-31T20:17:17.905Z,101456
2017-05-31T20:22:23.904Z,101471
2017-05-31T20:24:52.878Z,101474
2017-05-31T20:27:21.875Z,101475
2017-05-31T20:29:50.879Z,101477
2017-05-31T20:32:20.240Z,101478
2017-05-31T20:34:49.256Z,101469
2017-05-31T20:37:18.221Z,101484
2017-05-31T20:39:47.586Z,101485
2017-05-31T20:42:16.599Z,101481
2017-05-31T20:44:45.584Z,101477
2017-05-31T20:47:14.569Z,101478
2017-05-31T20:49:43.566Z,101484
2017-05-31T20:52:12.876Z,101487
2017-05-31T20:54:41.834Z,101490
2017-05-31T20:57:10.827Z,101484
2017-05-31T20:59:39.860Z,101488
2017-05-31T21:02:08.863Z,101486
2017-05-31T21:04:38.224Z,101489
2017-05-31T21:07:07.239Z,101483
2017-05-31T21:09:36.211Z,101490
2017-05-31T21:12:05.191Z,101484
2017-05-31T21:14:34.161Z,101495
2017-05-31T21:17:03.484Z,101499
2017-05-31T21:19:32.443Z,101495
2017-05-31T21:22:01.407Z,101496
2017-05-31T21:24:30.422Z,101494
2017-05-31T21:26:59.376Z,101492
2017-05-31T21:29:28.746Z,101492
2017-05-31T21:31:57.696Z,101488
2017-05-31T21:34:26.676Z,101490
2017-05-31T21:36:55.643Z,101485
2017-05-31T21:39:24.635Z,101477
2017-05-31T21:41:54.024Z,101483
2017-05-31T21:44:23.008Z,101479
2017-05-31T21:46:52.916Z,101482
2017-05-31T21:49:21.891Z,101479
2017-05-31T21:51:50.880Z,101482
2017-05-31T21:54:20.222Z,101485
2017-05-31T21:56:49.178Z,101486
2017-05-31T21:59:18.172Z,101482
2017-05-31T22:01:47.157Z,101480
2017-05-31T22:04:16.137Z,101480
2017-05-31T22:06:45.629Z,101482
2017-05-31T22:09:14.562Z,101482
2017-05-31T22:11:43.537Z,101486
2017-05-31T22:14:12.515Z,101480
2017-05-31T22:16:41.477Z,101477
2017-05-31T22:19:10.843Z,101477
2017-05-31T22:21:39.804Z,101480
2017-05-31T22:24:08.755Z,101479
2017-05-31T22:26:37.756Z,101468
2017-05-31T22:29:06.723Z,101470
2017-05-31T22:31:36.877Z,101481
2017-05-31T22:34:05.870Z,101471
2017-05-31T22:36:34.854Z,101473
2017-05-31T22:39:04.483Z,101473
2017-05-31T22:41:33.493Z,101478
2017-05-31T22:44:02.947Z,101475
2017-05-31T22:46:31.098Z,101472
2017-05-31T22:49:00.084Z,101473
2017-05-31T22:51:29.068Z,101477
2017-05-31T22:53:58.055Z,101480
2017-05-31T22:56:27.473Z,101482
2017-05-31T22:58:56.437Z,101489
2017-05-31T23:01:25.431Z,101486
2017-05-31T23:03:54.433Z,101489
2017-05-31T23:06:23.420Z,101490
2017-05-31T23:08:52.782Z,101484
2017-05-31T23:11:21.774Z,101484
2017-05-31T23:13:50.735Z,101494
2017-05-31T23:16:19.731Z,101493
2017-05-31T23:18:48.704Z,101488
2017-05-31T23:21:18.106Z,101485
2017-05-31T23:23:47.052Z,101491
2017-05-31T23:26:16.016Z,101494
2017-05-31T23:28:44.986Z,101494
2017-05-31T23:31:13.977Z,101494
2017-05-31T23:33:42.936Z,101498
2017-05-31T23:36:11.866Z,101498
2017-05-31T23:38:41.256Z,101495
2017-05-31T23:41:10.250Z,101505
2017-05-31T23:43:39.245Z,101499
2017-05-31T23:46:08.217Z,101494
2017-05-31T23:48:38.278Z,101496
2017-05-31T23:51:07.662Z,101497
2017-05-31T23:53:36.732Z,101497
2017-05-31T23:56:05.704Z,101499
2017-05-31T23:58:34.673Z,101500
